KCKV

Outlaw Field Airport

Clarksville, Tennessee, USA
METAR KCKV 212327Z AUTO 22007KT 10SM TS BKN120 27/20 A2974 RMK AO2 LTG DSNT W-N TSB27 T02670200
Observed Flight Rules
Jun-21 @ 23:27 UTC (27 minutes ago) Visual Flight Rules
Wind Visibility Clouds Conditions
220° at 7 knots 10 miles
  • Broken at 12,000' AGL
  • Thunderstorm
Temperatures Readings
Current 27°C / 81°F
Dewpoint 20°C / 68°F
Humidity 66%
Altimeter 29.74" Hg
Pressure 1007 hPa
Elevation 165
METAR KCKV 212327Z AUTO 22007KT 10SM TS BKN120 27/20 A2974 RMK AO2 LTG DSNT W-N TSB27 T02670200
Observed Flight Rules
Jun-21 @ 23:27 UTC
(27 minutes ago)
VFR
Wind Visibility
220° at 7 knots 10 miles
Clouds
  • Broken at 12,000' AGL
Conditions
  • Thunderstorm
Temperature Dewpoint
27°C / 81°F 20°C / 68°F
Humidity Altimeter Pressure
66% 29.74" Hg 1007 hPa